^^
 
Daily Summary for February 28, 2021 Units:  English    Metric   Both
Daily Weekly Monthly Yearly Custom
  Current: High: Low: Average:
Temperature: 35.3 °F 36.9 °F 34.9 °F 35.6 °F
Dew Point: 21.2 °F 23.9 °F 19.9 °F 22.2 °F
Humidity: 56% 62% 53% 58%
Wind Speed: 0mph 4mph 0mph 0.1mph
Wind Gust: 0mph 3mph - -
WindCalm - - SSW
Pressure: 30.3 in 30.3 in 30.2 in -
Precipitation: 0.000 in      
Historical Graphs
 
 
Tabular Data for February 28, 2021
Time Temperature Dew Point Pressure Wind Wind Speed Wind Gust Humidity Rainfall Rate (Hourly) solar
00:09 36.9 °F 23.9 °F 30.2 in Calm     59% 0.000 in 0.00 W/m2
00:14 36.8 °F 23.8 °F 30.2 in Calm     59% 0.000 in 0.00 W/m2
00:19 36.7 °F 23.7 °F 30.2 in Calm     59% 0.000 in 0.00 W/m2
00:24 36.6 °F 23.2 °F 30.2 in Calm     58% 0.000 in 0.00 W/m2
00:29 36.4 °F 23.0 °F 30.2 in Calm     58% 0.000 in 0.00 W/m2
00:34 36.3 °F 22.9 °F 30.2 in Calm     58% 0.000 in 0.00 W/m2
00:39 36.2 °F 23.1 °F 30.2 in Calm     59% 0.000 in 0.00 W/m2
00:43 36.1 °F 23.1 °F 30.2 in Calm     59% 0.000 in 0.00 W/m2
00:49 36.0 °F 23.4 °F 30.2 in Calm     60% 0.000 in 0.00 W/m2
00:54 35.8 °F 22.9 °F 30.2 in Calm     59% 0.000 in 0.00 W/m2
00:59 35.7 °F 23.2 °F 30.2 in Calm     60% 0.000 in 0.00 W/m2
01:04 35.7 °F 23.2 °F 30.2 in Calm     60% 0.000 in 0.00 W/m2
01:09 35.6 °F 23.1 °F 30.2 in Calm     60% 0.000 in 0.00 W/m2
01:14 35.6 °F 23.0 °F 30.2 in Calm     60% 0.000 in 0.00 W/m2
01:19 35.5 °F 23.0 °F 30.2 in Calm     60% 0.000 in 0.00 W/m2
01:24 35.5 °F 23.0 °F 30.2 in Calm     60% 0.000 in 0.00 W/m2
01:29 35.5 °F 23.0 °F 30.2 in Calm     60% 0.000 in 0.00 W/m2
01:34 35.5 °F 23.0 °F 30.2 in Calm     60% 0.000 in 0.00 W/m2
01:39 35.5 °F 22.2 °F 30.2 in Calm     58% 0.000 in 0.00 W/m2
01:44 35.5 °F 23.0 °F 30.2 in Calm     60% 0.000 in 0.00 W/m2
01:49 35.5 °F 23.0 °F 30.2 in Calm     60% 0.000 in 0.00 W/m2
01:54 35.4 °F 22.1 °F 30.2 in Calm     58% 0.000 in 0.00 W/m2
01:59 35.3 °F 22.4 °F 30.2 in Calm     59% 0.000 in 0.00 W/m2
02:04 35.3 °F 22.4 °F 30.2 in Calm     59% 0.000 in 0.00 W/m2
02:09 35.3 °F 22.8 °F 30.2 in Calm     60% 0.000 in 0.00 W/m2
02:14 35.3 °F 23.2 °F 30.2 in Calm     61% 0.000 in 0.00 W/m2
02:19 35.2 °F 23.5 °F 30.2 in Calm     62% 0.000 in 0.00 W/m2
02:24 35.2 °F 23.1 °F 30.2 in Calm     61% 0.000 in 0.00 W/m2
02:29 35.0 °F 21.6 °F 30.2 in Calm     58% 0.000 in 0.00 W/m2
02:34 34.9 °F 21.6 °F 30.2 in Calm     58% 0.000 in 0.00 W/m2
02:39 35.0 °F 22.0 °F 30.2 in Calm     59% 0.000 in 0.00 W/m2
02:44 35.0 °F 21.7 °F 30.2 in Calm     58% 0.000 in 0.00 W/m2
02:49 35.1 °F 22.1 °F 30.2 in Calm     59% 0.000 in 0.00 W/m2
02:54 35.1 °F 21.8 °F 30.2 in Calm     58% 0.000 in 0.00 W/m2
02:59 35.2 °F 21.9 °F 30.2 in Calm     58% 0.000 in 0.00 W/m2
03:04 35.2 °F 21.5 °F 30.2 in Calm     57% 0.000 in 0.00 W/m2
03:09 35.3 °F 21.6 °F 30.2 in Calm     57% 0.000 in 0.00 W/m2
03:14 35.3 °F 21.5 °F 30.2 in Calm     57% 0.000 in 0.00 W/m2
03:19 35.4 °F 21.2 °F 30.2 in Calm     56% 0.000 in 0.00 W/m2
03:24 35.5 °F 21.8 °F 30.2 in Calm     57% 0.000 in 0.00 W/m2
03:26 35.5 °F 21.3 °F 30.2 in Calm     56% 0.000 in 0.00 W/m2
03:34 35.6 °F 21.4 °F 30.2 in Calm     56% 0.000 in 0.00 W/m2
03:39 35.7 °F 21.5 °F 30.2 in Calm     56% 0.000 in 0.00 W/m2
03:44 35.7 °F 21.5 °F 30.2 in Calm     56% 0.000 in 0.00 W/m2
03:49 35.7 °F 21.5 °F 30.2 in Calm     56% 0.000 in 0.00 W/m2
03:54 35.7 °F 21.5 °F 30.2 in Calm     56% 0.000 in 0.00 W/m2
03:59 35.7 °F 21.5 °F 30.2 in Calm     56% 0.000 in 0.00 W/m2
04:03 35.7 °F 21.5 °F 30.3 in Calm     56% 0.000 in 0.00 W/m2
04:09 35.7 °F 21.5 °F 30.3 in Calm     56% 0.000 in 0.00 W/m2
04:14 35.7 °F 21.9 °F 30.3 in Calm     57% 0.000 in 0.00 W/m2
04:19 35.7 °F 21.9 °F 30.3 in Calm     57% 0.000 in 0.00 W/m2
04:24 35.7 °F 21.9 °F 30.3 in Calm     57% 0.000 in 0.00 W/m2
04:29 35.6 °F 21.9 °F 30.3 in Calm     57% 0.000 in 0.00 W/m2
04:34 35.5 °F 20.9 °F 30.3 in Calm     55% 0.000 in 0.00 W/m2
04:39 35.4 °F 20.8 °F 30.3 in SSW 4 mph 1 mph 55% 0.000 in 0.00 W/m2
04:44 35.4 °F 19.9 °F 30.3 in Calm   3 mph 53% 0.000 in 0.00 W/m2
04:49 35.4 °F 20.8 °F 30.3 in Calm     55% 0.000 in 0.00 W/m2
04:54 35.4 °F 21.2 °F 30.3 in Calm     56% 0.000 in 0.00 W/m2
04:59 35.4 °F 21.2 °F 30.3 in Calm     56% 0.000 in 0.00 W/m2
05:04 35.4 °F 20.8 °F 30.3 in Calm     55% 0.000 in 0.00 W/m2
05:14 35.3 °F 21.2 °F 30.3 in Calm     56% 0.000 in 0.00 W/m2
El Dorado Weather
Compliments of Weather Underground - 1.75 mb